sensor_id;sensor_type;location;lat;lon;timestamp;P1;durP1;ratioP1;P2;durP2;ratioP2
60979;SDS011;46851;49.160;8.980;2022-11-02T00:00:41;9.63;;;2.40;;
60979;SDS011;46851;49.160;8.980;2022-11-02T00:03:07;5.60;;;1.92;;
60979;SDS011;46851;49.160;8.980;2022-11-02T00:05:33;10.45;;;2.30;;
60979;SDS011;46851;49.160;8.980;2022-11-02T00:07:59;10.30;;;1.90;;
60979;SDS011;46851;49.160;8.980;2022-11-02T00:10:25;7.57;;;2.20;;
60979;SDS011;46851;49.160;8.980;2022-11-02T00:12:51;7.65;;;2.15;;
60979;SDS011;46851;49.160;8.980;2022-11-02T00:15:18;3.80;;;2.00;;
60979;SDS011;46851;49.160;8.980;2022-11-02T00:17:45;9.93;;;1.90;;
60979;SDS011;46851;49.160;8.980;2022-11-02T00:20:13;4.78;;;2.25;;
60979;SDS011;46851;49.160;8.980;2022-11-02T00:22:40;8.57;;;2.30;;
60979;SDS011;46851;49.160;8.980;2022-11-02T00:25:07;7.38;;;2.17;;
60979;SDS011;46851;49.160;8.980;2022-11-02T00:27:36;7.68;;;2.20;;
60979;SDS011;46851;49.160;8.980;2022-11-02T00:30:02;9.18;;;1.80;;
60979;SDS011;46851;49.160;8.980;2022-11-02T00:32:28;19.52;;;2.50;;
60979;SDS011;46851;49.160;8.980;2022-11-02T00:34:55;7.97;;;2.50;;
60979;SDS011;46851;49.160;8.980;2022-11-02T00:37:21;9.93;;;1.80;;
60979;SDS011;46851;49.160;8.980;2022-11-02T00:39:47;5.82;;;1.80;;
60979;SDS011;46851;49.160;8.980;2022-11-02T00:42:13;9.80;;;2.17;;
60979;SDS011;46851;49.160;8.980;2022-11-02T00:44:40;4.72;;;1.80;;
60979;SDS011;46851;49.160;8.980;2022-11-02T00:47:06;10.07;;;2.05;;
60979;SDS011;46851;49.160;8.980;2022-11-02T00:49:32;6.93;;;1.80;;
60979;SDS011;46851;49.160;8.980;2022-11-02T00:51:58;12.80;;;1.85;;
60979;SDS011;46851;49.160;8.980;2022-11-02T00:54:24;8.43;;;2.33;;
60979;SDS011;46851;49.160;8.980;2022-11-02T00:56:50;6.63;;;2.40;;
60979;SDS011;46851;49.160;8.980;2022-11-02T00:59:16;19.38;;;2.88;;
60979;SDS011;46851;49.160;8.980;2022-11-02T01:01:42;6.28;;;2.08;;
60979;SDS011;46851;49.160;8.980;2022-11-02T01:04:12;9.25;;;2.40;;
60979;SDS011;46851;49.160;8.980;2022-11-02T01:06:38;6.80;;;2.42;;
60979;SDS011;46851;49.160;8.980;2022-11-02T01:09:04;7.40;;;2.10;;
60979;SDS011;46851;49.160;8.980;2022-11-02T01:11:30;11.75;;;2.47;;
60979;SDS011;46851;49.160;8.980;2022-11-02T01:13:56;8.57;;;2.00;;
60979;SDS011;46851;49.160;8.980;2022-11-02T01:16:22;7.03;;;2.40;;
60979;SDS011;46851;49.160;8.980;2022-11-02T01:18:52;11.00;;;2.75;;
60979;SDS011;46851;49.160;8.980;2022-11-02T01:21:19;10.40;;;2.20;;
60979;SDS011;46851;49.160;8.980;2022-11-02T01:23:45;10.07;;;2.00;;
60979;SDS011;46851;49.160;8.980;2022-11-02T01:26:11;5.30;;;1.92;;
60979;SDS011;46851;49.160;8.980;2022-11-02T01:28:38;8.68;;;2.05;;
60979;SDS011;46851;49.160;8.980;2022-11-02T01:31:04;8.57;;;1.95;;
60979;SDS011;46851;49.160;8.980;2022-11-02T01:33:31;12.80;;;2.15;;
60979;SDS011;46851;49.160;8.980;2022-11-02T01:35:57;5.45;;;2.08;;
60979;SDS011;46851;49.160;8.980;2022-11-02T01:38:24;6.72;;;1.85;;
60979;SDS011;46851;49.160;8.980;2022-11-02T01:40:50;6.68;;;2.17;;
60979;SDS011;46851;49.160;8.980;2022-11-02T01:43:26;4.15;;;1.90;;
60979;SDS011;46851;49.160;8.980;2022-11-02T01:45:54;6.50;;;1.98;;
60979;SDS011;46851;49.160;8.980;2022-11-02T01:48:27;4.20;;;1.50;;
60979;SDS011;46851;49.160;8.980;2022-11-02T01:50:55;5.95;;;2.00;;
60979;SDS011;46851;49.160;8.980;2022-11-02T01:53:22;9.63;;;1.75;;
60979;SDS011;46851;49.160;8.980;2022-11-02T01:55:48;9.38;;;2.03;;
60979;SDS011;46851;49.160;8.980;2022-11-02T01:58:15;9.85;;;1.85;;
60979;SDS011;46851;49.160;8.980;2022-11-02T02:00:41;5.90;;;1.60;;
60979;SDS011;46851;49.160;8.980;2022-11-02T02:03:08;8.00;;;1.63;;
60979;SDS011;46851;49.160;8.980;2022-11-02T02:05:37;6.78;;;1.80;;
60979;SDS011;46851;49.160;8.980;2022-11-02T02:08:03;10.97;;;1.70;;
60979;SDS011;46851;49.160;8.980;2022-11-02T02:10:32;7.95;;;1.63;;
60979;SDS011;46851;49.160;8.980;2022-11-02T02:12:58;8.20;;;1.55;;
60979;SDS011;46851;49.160;8.980;2022-11-02T02:15:25;7.35;;;1.77;;
60979;SDS011;46851;49.160;8.980;2022-11-02T02:25:59;4.15;;;1.60;;
60979;SDS011;46851;49.160;8.980;2022-11-02T02:30:56;4.75;;;1.50;;
60979;SDS011;46851;49.160;8.980;2022-11-02T02:33:31;7.68;;;1.98;;
60979;SDS011;46851;49.160;8.980;2022-11-02T02:35:59;5.55;;;1.88;;
60979;SDS011;46851;49.160;8.980;2022-11-02T02:43:31;7.00;;;1.60;;
60979;SDS011;46851;49.160;8.980;2022-11-02T02:46:04;10.57;;;2.15;;
60979;SDS011;46851;49.160;8.980;2022-11-02T02:48:31;5.13;;;2.15;;
60979;SDS011;46851;49.160;8.980;2022-11-02T02:51:00;9.82;;;1.98;;
60979;SDS011;46851;49.160;8.980;2022-11-02T02:53:32;3.88;;;1.30;;
60979;SDS011;46851;49.160;8.980;2022-11-02T02:55:59;7.07;;;2.13;;
60979;SDS011;46851;49.160;8.980;2022-11-02T02:58:30;11.27;;;2.20;;
60979;SDS011;46851;49.160;8.980;2022-11-02T03:00:57;9.73;;;1.90;;
60979;SDS011;46851;49.160;8.980;2022-11-02T03:03:25;9.18;;;1.88;;
60979;SDS011;46851;49.160;8.980;2022-11-02T03:06:00;11.15;;;1.80;;
60979;SDS011;46851;49.160;8.980;2022-11-02T03:08:31;6.05;;;1.38;;
60979;SDS011;46851;49.160;8.980;2022-11-02T03:11:02;6.65;;;1.50;;
60979;SDS011;46851;49.160;8.980;2022-11-02T03:16:10;10.18;;;1.98;;
60979;SDS011;46851;49.160;8.980;2022-11-02T03:18:50;5.85;;;1.40;;
60979;SDS011;46851;49.160;8.980;2022-11-02T03:24:12;8.90;;;1.40;;
60979;SDS011;46851;49.160;8.980;2022-11-02T03:26:45;7.22;;;1.90;;
60979;SDS011;46851;49.160;8.980;2022-11-02T03:29:14;9.77;;;1.58;;
60979;SDS011;46851;49.160;8.980;2022-11-02T03:37:21;12.40;;;1.67;;
60979;SDS011;46851;49.160;8.980;2022-11-02T03:39:49;6.88;;;1.70;;
60979;SDS011;46851;49.160;8.980;2022-11-02T03:42:18;7.25;;;1.40;;
60979;SDS011;46851;49.160;8.980;2022-11-02T03:44:47;7.43;;;1.50;;
60979;SDS011;46851;49.160;8.980;2022-11-02T03:47:15;6.22;;;1.70;;
60979;SDS011;46851;49.160;8.980;2022-11-02T03:49:42;6.13;;;1.70;;
60979;SDS011;46851;49.160;8.980;2022-11-02T03:52:09;13.15;;;2.05;;
60979;SDS011;46851;49.160;8.980;2022-11-02T03:54:41;11.63;;;1.40;;
60979;SDS011;46851;49.160;8.980;2022-11-02T03:57:08;9.73;;;1.63;;
60979;SDS011;46851;49.160;8.980;2022-11-02T03:59:35;6.68;;;1.60;;
60979;SDS011;46851;49.160;8.980;2022-11-02T04:02:01;6.55;;;1.58;;
60979;SDS011;46851;49.160;8.980;2022-11-02T04:04:27;9.00;;;1.85;;
60979;SDS011;46851;49.160;8.980;2022-11-02T04:06:53;9.68;;;1.73;;
60979;SDS011;46851;49.160;8.980;2022-11-02T04:09:20;5.70;;;1.33;;
60979;SDS011;46851;49.160;8.980;2022-11-02T04:11:46;9.75;;;1.70;;
60979;SDS011;46851;49.160;8.980;2022-11-02T04:14:30;5.68;;;1.77;;
60979;SDS011;46851;49.160;8.980;2022-11-02T04:17:03;6.50;;;1.60;;
60979;SDS011;46851;49.160;8.980;2022-11-02T04:19:47;3.30;;;1.35;;
60979;SDS011;46851;49.160;8.980;2022-11-02T04:22:14;6.63;;;1.45;;
60979;SDS011;46851;49.160;8.980;2022-11-02T04:24:58;7.13;;;1.63;;
60979;SDS011;46851;49.160;8.980;2022-11-02T04:27:40;8.70;;;1.70;;
60979;SDS011;46851;49.160;8.980;2022-11-02T04:30:06;6.40;;;1.55;;
60979;SDS011;46851;49.160;8.980;2022-11-02T04:32:38;6.25;;;1.38;;
60979;SDS011;46851;49.160;8.980;2022-11-02T04:35:23;6.57;;;1.75;;
60979;SDS011;46851;49.160;8.980;2022-11-02T04:37:49;7.28;;;1.63;;
60979;SDS011;46851;49.160;8.980;2022-11-02T04:40:33;6.97;;;1.60;;
60979;SDS011;46851;49.160;8.980;2022-11-02T04:43:00;5.43;;;1.52;;
60979;SDS011;46851;49.160;8.980;2022-11-02T04:45:26;4.82;;;1.52;;
60979;SDS011;46851;49.160;8.980;2022-11-02T04:47:52;8.25;;;1.63;;
60979;SDS011;46851;49.160;8.980;2022-11-02T04:50:19;8.70;;;1.65;;
60979;SDS011;46851;49.160;8.980;2022-11-02T04:52:45;12.50;;;1.80;;
60979;SDS011;46851;49.160;8.980;2022-11-02T04:55:11;6.03;;;1.55;;
60979;SDS011;46851;49.160;8.980;2022-11-02T04:57:37;5.20;;;1.40;;
60979;SDS011;46851;49.160;8.980;2022-11-02T05:00:03;8.65;;;2.15;;
60979;SDS011;46851;49.160;8.980;2022-11-02T05:02:31;5.95;;;1.67;;
60979;SDS011;46851;49.160;8.980;2022-11-02T05:04:57;8.13;;;1.70;;
60979;SDS011;46851;49.160;8.980;2022-11-02T05:07:23;10.13;;;1.80;;
60979;SDS011;46851;49.160;8.980;2022-11-02T05:12:30;8.40;;;1.45;;
60979;SDS011;46851;49.160;8.980;2022-11-02T05:14:56;4.50;;;1.65;;
60979;SDS011;46851;49.160;8.980;2022-11-02T05:17:22;10.05;;;1.48;;
60979;SDS011;46851;49.160;8.980;2022-11-02T05:19:48;11.23;;;1.85;;
60979;SDS011;46851;49.160;8.980;2022-11-02T05:22:14;9.27;;;2.22;;
60979;SDS011;46851;49.160;8.980;2022-11-02T05:24:40;5.82;;;1.40;;
60979;SDS011;46851;49.160;8.980;2022-11-02T05:27:08;8.27;;;1.42;;
60979;SDS011;46851;49.160;8.980;2022-11-02T05:29:34;9.10;;;2.22;;
60979;SDS011;46851;49.160;8.980;2022-11-02T05:32:00;6.50;;;1.73;;
60979;SDS011;46851;49.160;8.980;2022-11-02T05:34:26;8.50;;;1.90;;
60979;SDS011;46851;49.160;8.980;2022-11-02T05:36:52;7.57;;;1.60;;
60979;SDS011;46851;49.160;8.980;2022-11-02T05:39:18;8.60;;;2.55;;
60979;SDS011;46851;49.160;8.980;2022-11-02T05:41:44;9.95;;;1.95;;
60979;SDS011;46851;49.160;8.980;2022-11-02T05:44:10;12.98;;;2.70;;
60979;SDS011;46851;49.160;8.980;2022-11-02T05:46:36;14.45;;;3.20;;
60979;SDS011;46851;49.160;8.980;2022-11-02T05:49:02;13.05;;;1.95;;
60979;SDS011;46851;49.160;8.980;2022-11-02T05:51:28;10.20;;;1.90;;
60979;SDS011;46851;49.160;8.980;2022-11-02T05:53:54;7.82;;;1.80;;
60979;SDS011;46851;49.160;8.980;2022-11-02T05:56:20;9.55;;;1.80;;
60979;SDS011;46851;49.160;8.980;2022-11-02T05:58:46;5.65;;;1.63;;
60979;SDS011;46851;49.160;8.980;2022-11-02T06:01:12;9.70;;;1.92;;
60979;SDS011;46851;49.160;8.980;2022-11-02T06:03:38;8.43;;;2.40;;
60979;SDS011;46851;49.160;8.980;2022-11-02T06:06:05;9.57;;;2.30;;
60979;SDS011;46851;49.160;8.980;2022-11-02T06:08:32;9.98;;;2.38;;
60979;SDS011;46851;49.160;8.980;2022-11-02T06:11:02;7.10;;;2.13;;
60979;SDS011;46851;49.160;8.980;2022-11-02T06:13:28;8.88;;;2.20;;
60979;SDS011;46851;49.160;8.980;2022-11-02T06:15:57;9.98;;;1.95;;
60979;SDS011;46851;49.160;8.980;2022-11-02T06:18:23;12.45;;;2.28;;
60979;SDS011;46851;49.160;8.980;2022-11-02T06:20:49;6.97;;;1.80;;
60979;SDS011;46851;49.160;8.980;2022-11-02T06:32:34;11.30;;;2.60;;
60979;SDS011;46851;49.160;8.980;2022-11-02T06:35:00;12.00;;;2.70;;
60979;SDS011;46851;49.160;8.980;2022-11-02T06:37:27;11.50;;;2.20;;
60979;SDS011;46851;49.160;8.980;2022-11-02T06:39:53;9.35;;;2.40;;
60979;SDS011;46851;49.160;8.980;2022-11-02T06:42:19;10.27;;;2.50;;
60979;SDS011;46851;49.160;8.980;2022-11-02T06:44:45;7.65;;;2.08;;
60979;SDS011;46851;49.160;8.980;2022-11-02T06:47:11;8.65;;;2.63;;
60979;SDS011;46851;49.160;8.980;2022-11-02T06:49:37;8.32;;;2.25;;
60979;SDS011;46851;49.160;8.980;2022-11-02T06:52:03;11.82;;;2.35;;
60979;SDS011;46851;49.160;8.980;2022-11-02T06:54:30;9.48;;;2.10;;
60979;SDS011;46851;49.160;8.980;2022-11-02T06:56:56;8.90;;;2.03;;
60979;SDS011;46851;49.160;8.980;2022-11-02T06:59:22;10.27;;;2.40;;
60979;SDS011;46851;49.160;8.980;2022-11-02T07:01:48;7.40;;;1.70;;
60979;SDS011;46851;49.160;8.980;2022-11-02T07:04:17;7.70;;;1.92;;
60979;SDS011;46851;49.160;8.980;2022-11-02T07:06:43;12.63;;;2.42;;
60979;SDS011;46851;49.160;8.980;2022-11-02T07:09:09;6.07;;;2.47;;
60979;SDS011;46851;49.160;8.980;2022-11-02T07:11:36;12.45;;;2.30;;
60979;SDS011;46851;49.160;8.980;2022-11-02T07:14:02;11.85;;;2.63;;
60979;SDS011;46851;49.160;8.980;2022-11-02T07:16:28;9.55;;;1.90;;
60979;SDS011;46851;49.160;8.980;2022-11-02T07:18:55;9.43;;;2.28;;
60979;SDS011;46851;49.160;8.980;2022-11-02T07:21:21;8.65;;;2.40;;
60979;SDS011;46851;49.160;8.980;2022-11-02T07:23:47;9.63;;;2.33;;
60979;SDS011;46851;49.160;8.980;2022-11-02T07:26:13;11.57;;;1.73;;
60979;SDS011;46851;49.160;8.980;2022-11-02T07:28:39;6.53;;;3.08;;
60979;SDS011;46851;49.160;8.980;2022-11-02T07:31:05;19.25;;;3.08;;
60979;SDS011;46851;49.160;8.980;2022-11-02T07:33:31;10.50;;;2.28;;
60979;SDS011;46851;49.160;8.980;2022-11-02T07:35:57;13.85;;;2.30;;
60979;SDS011;46851;49.160;8.980;2022-11-02T07:38:23;13.40;;;2.35;;
60979;SDS011;46851;49.160;8.980;2022-11-02T07:40:49;19.15;;;2.85;;
60979;SDS011;46851;49.160;8.980;2022-11-02T07:43:15;8.65;;;1.98;;
60979;SDS011;46851;49.160;8.980;2022-11-02T07:45:41;13.20;;;2.40;;
60979;SDS011;46851;49.160;8.980;2022-11-02T07:48:07;11.43;;;1.80;;
60979;SDS011;46851;49.160;8.980;2022-11-02T07:50:33;7.32;;;2.10;;
60979;SDS011;46851;49.160;8.980;2022-11-02T07:52:59;6.30;;;2.28;;
60979;SDS011;46851;49.160;8.980;2022-11-02T07:55:26;8.60;;;1.83;;
60979;SDS011;46851;49.160;8.980;2022-11-02T07:57:56;10.65;;;2.13;;
60979;SDS011;46851;49.160;8.980;2022-11-02T08:00:23;15.93;;;3.05;;
60979;SDS011;46851;49.160;8.980;2022-11-02T08:02:53;12.45;;;2.40;;
60979;SDS011;46851;49.160;8.980;2022-11-02T08:07:45;11.77;;;2.83;;
60979;SDS011;46851;49.160;8.980;2022-11-02T08:10:12;9.07;;;2.20;;
60979;SDS011;46851;49.160;8.980;2022-11-02T08:12:38;14.98;;;3.35;;
60979;SDS011;46851;49.160;8.980;2022-11-02T08:15:04;11.98;;;2.10;;
60979;SDS011;46851;49.160;8.980;2022-11-02T08:17:31;8.35;;;2.42;;
60979;SDS011;46851;49.160;8.980;2022-11-02T08:19:57;13.68;;;2.53;;
60979;SDS011;46851;49.160;8.980;2022-11-02T08:22:23;9.57;;;2.38;;
60979;SDS011;46851;49.160;8.980;2022-11-02T08:24:49;10.02;;;2.15;;
60979;SDS011;46851;49.160;8.980;2022-11-02T08:27:15;13.75;;;2.45;;
60979;SDS011;46851;49.160;8.980;2022-11-02T08:32:47;22.70;;;3.78;;
60979;SDS011;46851;49.160;8.980;2022-11-02T08:35:13;16.73;;;3.13;;
60979;SDS011;46851;49.160;8.980;2022-11-02T08:37:39;32.70;;;3.58;;
60979;SDS011;46851;49.160;8.980;2022-11-02T08:40:06;30.15;;;5.03;;
60979;SDS011;46851;49.160;8.980;2022-11-02T08:42:35;45.72;;;3.70;;
60979;SDS011;46851;49.160;8.980;2022-11-02T08:45:05;34.00;;;3.47;;
60979;SDS011;46851;49.160;8.980;2022-11-02T08:47:31;35.42;;;3.30;;
60979;SDS011;46851;49.160;8.980;2022-11-02T08:50:03;36.88;;;3.75;;
60979;SDS011;46851;49.160;8.980;2022-11-02T08:52:33;30.02;;;4.00;;
60979;SDS011;46851;49.160;8.980;2022-11-02T08:54:59;13.38;;;2.17;;
60979;SDS011;46851;49.160;8.980;2022-11-02T08:57:25;8.88;;;2.05;;
60979;SDS011;46851;49.160;8.980;2022-11-02T08:59:51;12.55;;;2.90;;
60979;SDS011;46851;49.160;8.980;2022-11-02T09:02:17;17.77;;;2.03;;
60979;SDS011;46851;49.160;8.980;2022-11-02T09:04:43;15.20;;;2.03;;
60979;SDS011;46851;49.160;8.980;2022-11-02T09:07:09;8.32;;;1.73;;
60979;SDS011;46851;49.160;8.980;2022-11-02T09:09:35;17.77;;;2.17;;
60979;SDS011;46851;49.160;8.980;2022-11-02T09:12:01;9.75;;;1.85;;
60979;SDS011;46851;49.160;8.980;2022-11-02T09:14:27;12.05;;;2.17;;
60979;SDS011;46851;49.160;8.980;2022-11-02T09:16:53;10.30;;;1.90;;
60979;SDS011;46851;49.160;8.980;2022-11-02T09:19:19;13.18;;;2.25;;
60979;SDS011;46851;49.160;8.980;2022-11-02T09:21:45;11.73;;;2.10;;
60979;SDS011;46851;49.160;8.980;2022-11-02T09:24:13;13.23;;;1.98;;
60979;SDS011;46851;49.160;8.980;2022-11-02T09:26:39;12.82;;;1.95;;
60979;SDS011;46851;49.160;8.980;2022-11-02T09:29:05;11.05;;;1.73;;
60979;SDS011;46851;49.160;8.980;2022-11-02T09:31:31;9.60;;;2.08;;
60979;SDS011;46851;49.160;8.980;2022-11-02T09:33:57;12.48;;;2.28;;
60979;SDS011;46851;49.160;8.980;2022-11-02T09:36:23;10.90;;;2.20;;
60979;SDS011;46851;49.160;8.980;2022-11-02T09:38:49;18.13;;;2.20;;
60979;SDS011;46851;49.160;8.980;2022-11-02T09:41:21;18.73;;;2.80;;
60979;SDS011;46851;49.160;8.980;2022-11-02T09:44:02;8.13;;;1.88;;
60979;SDS011;46851;49.160;8.980;2022-11-02T09:46:35;14.00;;;2.30;;
60979;SDS011;46851;49.160;8.980;2022-11-02T09:49:03;10.48;;;1.88;;
60979;SDS011;46851;49.160;8.980;2022-11-02T09:51:32;15.13;;;3.15;;
60979;SDS011;46851;49.160;8.980;2022-11-02T09:54:01;10.68;;;1.88;;
60979;SDS011;46851;49.160;8.980;2022-11-02T09:56:29;16.40;;;1.90;;
60979;SDS011;46851;49.160;8.980;2022-11-02T09:59:01;38.13;;;4.25;;
60979;SDS011;46851;49.160;8.980;2022-11-02T10:01:41;31.63;;;2.53;;
60979;SDS011;46851;49.160;8.980;2022-11-02T10:07:05;12.50;;;2.05;;
60979;SDS011;46851;49.160;8.980;2022-11-02T10:09:36;16.10;;;1.92;;
60979;SDS011;46851;49.160;8.980;2022-11-02T10:12:12;9.32;;;1.95;;
60979;SDS011;46851;49.160;8.980;2022-11-02T10:14:45;10.80;;;2.33;;
60979;SDS011;46851;49.160;8.980;2022-11-02T10:17:16;15.80;;;2.00;;
60979;SDS011;46851;49.160;8.980;2022-11-02T10:19:45;24.33;;;2.55;;
60979;SDS011;46851;49.160;8.980;2022-11-02T10:22:12;12.07;;;2.20;;
60979;SDS011;46851;49.160;8.980;2022-11-02T10:27:11;13.80;;;2.03;;
60979;SDS011;46851;49.160;8.980;2022-11-02T10:32:24;19.08;;;2.70;;
60979;SDS011;46851;49.160;8.980;2022-11-02T10:34:50;22.50;;;2.47;;
60979;SDS011;46851;49.160;8.980;2022-11-02T10:42:21;21.77;;;3.30;;
60979;SDS011;46851;49.160;8.980;2022-11-02T10:47:36;15.60;;;2.20;;
60979;SDS011;46851;49.160;8.980;2022-11-02T10:52:33;16.95;;;2.67;;
60979;SDS011;46851;49.160;8.980;2022-11-02T10:55:00;33.13;;;5.13;;
60979;SDS011;46851;49.160;8.980;2022-11-02T10:57:26;27.33;;;5.20;;
60979;SDS011;46851;49.160;8.980;2022-11-02T11:02:37;10.95;;;2.40;;
60979;SDS011;46851;49.160;8.980;2022-11-02T11:05:12;14.18;;;1.90;;
60979;SDS011;46851;49.160;8.980;2022-11-02T11:07:41;18.00;;;2.90;;
60979;SDS011;46851;49.160;8.980;2022-11-02T11:10:12;13.60;;;2.28;;
60979;SDS011;46851;49.160;8.980;2022-11-02T11:12:39;16.65;;;2.28;;
60979;SDS011;46851;49.160;8.980;2022-11-02T11:15:14;28.63;;;3.15;;
60979;SDS011;46851;49.160;8.980;2022-11-02T11:17:44;9.48;;;1.75;;
60979;SDS011;46851;49.160;8.980;2022-11-02T11:20:44;9.82;;;1.90;;
60979;SDS011;46851;49.160;8.980;2022-11-02T11:25:33;8.65;;;1.70;;
60979;SDS011;46851;49.160;8.980;2022-11-02T11:27:59;13.95;;;2.30;;
60979;SDS011;46851;49.160;8.980;2022-11-02T11:32:52;16.08;;;2.40;;
60979;SDS011;46851;49.160;8.980;2022-11-02T11:35:18;10.23;;;1.60;;
60979;SDS011;46851;49.160;8.980;2022-11-02T11:37:48;16.17;;;2.47;;
60979;SDS011;46851;49.160;8.980;2022-11-02T11:40:16;20.25;;;2.88;;
60979;SDS011;46851;49.160;8.980;2022-11-02T11:42:43;20.10;;;2.33;;
60979;SDS011;46851;49.160;8.980;2022-11-02T11:45:28;26.33;;;2.88;;
60979;SDS011;46851;49.160;8.980;2022-11-02T11:47:56;21.13;;;3.10;;
60979;SDS011;46851;49.160;8.980;2022-11-02T11:50:24;12.03;;;2.10;;
60979;SDS011;46851;49.160;8.980;2022-11-02T11:53:07;15.35;;;2.00;;
60979;SDS011;46851;49.160;8.980;2022-11-02T11:55:33;17.85;;;1.92;;
60979;SDS011;46851;49.160;8.980;2022-11-02T11:58:12;8.77;;;1.60;;
60979;SDS011;46851;49.160;8.980;2022-11-02T12:00:38;8.07;;;1.73;;
60979;SDS011;46851;49.160;8.980;2022-11-02T12:03:05;9.60;;;1.67;;
60979;SDS011;46851;49.160;8.980;2022-11-02T12:06:19;8.88;;;1.75;;
60979;SDS011;46851;49.160;8.980;2022-11-02T12:08:24;12.30;;;1.58;;
60979;SDS011;46851;49.160;8.980;2022-11-02T12:13:43;14.23;;;1.90;;
60979;SDS011;46851;49.160;8.980;2022-11-02T12:18:44;22.23;;;2.55;;
60979;SDS011;46851;49.160;8.980;2022-11-02T12:29:40;9.85;;;1.70;;
60979;SDS011;46851;49.160;8.980;2022-11-02T12:31:43;13.35;;;1.95;;
60979;SDS011;46851;49.160;8.980;2022-11-02T12:49:33;16.15;;;2.42;;
60979;SDS011;46851;49.160;8.980;2022-11-02T12:54:33;27.83;;;2.80;;
60979;SDS011;46851;49.160;8.980;2022-11-02T12:57:01;25.70;;;2.78;;
60979;SDS011;46851;49.160;8.980;2022-11-02T12:59:29;19.77;;;1.90;;
60979;SDS011;46851;49.160;8.980;2022-11-02T13:05:12;18.52;;;2.08;;
60979;SDS011;46851;49.160;8.980;2022-11-02T13:07:42;15.95;;;2.63;;
60979;SDS011;46851;49.160;8.980;2022-11-02T13:12:38;13.15;;;1.80;;
60979;SDS011;46851;49.160;8.980;2022-11-02T13:15:10;21.05;;;2.15;;
60979;SDS011;46851;49.160;8.980;2022-11-02T13:17:39;32.95;;;2.85;;
60979;SDS011;46851;49.160;8.980;2022-11-02T13:25:35;8.32;;;1.45;;
60979;SDS011;46851;49.160;8.980;2022-11-02T13:28:04;10.48;;;1.90;;
60979;SDS011;46851;49.160;8.980;2022-11-02T13:30:31;4.32;;;1.27;;
60979;SDS011;46851;49.160;8.980;2022-11-02T13:32:58;9.23;;;1.65;;
60979;SDS011;46851;49.160;8.980;2022-11-02T13:37:57;30.38;;;4.30;;
60979;SDS011;46851;49.160;8.980;2022-11-02T13:40:28;10.50;;;2.15;;
60979;SDS011;46851;49.160;8.980;2022-11-02T13:43:18;11.27;;;1.35;;
60979;SDS011;46851;49.160;8.980;2022-11-02T13:48:37;12.63;;;1.50;;
60979;SDS011;46851;49.160;8.980;2022-11-02T13:51:03;9.25;;;1.40;;
60979;SDS011;46851;49.160;8.980;2022-11-02T13:53:35;9.70;;;1.95;;
60979;SDS011;46851;49.160;8.980;2022-11-02T13:56:09;7.65;;;1.38;;
60979;SDS011;46851;49.160;8.980;2022-11-02T13:58:37;20.33;;;2.65;;
60979;SDS011;46851;49.160;8.980;2022-11-02T14:01:06;20.85;;;2.80;;
60979;SDS011;46851;49.160;8.980;2022-11-02T14:03:41;22.52;;;2.60;;
60979;SDS011;46851;49.160;8.980;2022-11-02T14:06:11;22.67;;;3.03;;
60979;SDS011;46851;49.160;8.980;2022-11-02T14:08:46;19.58;;;2.40;;
60979;SDS011;46851;49.160;8.980;2022-11-02T14:39:54;14.40;;;1.70;;
60979;SDS011;46851;49.160;8.980;2022-11-02T14:47:40;9.10;;;1.75;;
60979;SDS011;46851;49.160;8.980;2022-11-02T14:52:34;9.02;;;1.92;;
60979;SDS011;46851;49.160;8.980;2022-11-02T14:55:02;9.95;;;1.70;;
60979;SDS011;46851;49.160;8.980;2022-11-02T15:00:03;12.38;;;2.55;;
60979;SDS011;46851;49.160;8.980;2022-11-02T15:02:36;14.18;;;2.53;;
60979;SDS011;46851;49.160;8.980;2022-11-02T15:05:04;14.43;;;1.92;;
60979;SDS011;46851;49.160;8.980;2022-11-02T15:07:39;17.58;;;2.33;;
60979;SDS011;46851;49.160;8.980;2022-11-02T15:10:33;17.23;;;1.73;;
60979;SDS011;46851;49.160;8.980;2022-11-02T15:12:55;6.70;;;2.03;;
60979;SDS011;46851;49.160;8.980;2022-11-02T15:15:38;9.65;;;2.58;;
60979;SDS011;46851;49.160;8.980;2022-11-02T15:18:49;12.13;;;1.98;;
60979;SDS011;46851;49.160;8.980;2022-11-02T15:23:42;9.90;;;1.90;;
60979;SDS011;46851;49.160;8.980;2022-11-02T15:26:14;12.20;;;2.50;;
60979;SDS011;46851;49.160;8.980;2022-11-02T15:28:41;20.40;;;3.72;;
60979;SDS011;46851;49.160;8.980;2022-11-02T15:31:15;15.63;;;4.00;;
60979;SDS011;46851;49.160;8.980;2022-11-02T15:33:42;11.50;;;2.75;;
60979;SDS011;46851;49.160;8.980;2022-11-02T15:36:14;17.15;;;5.50;;
60979;SDS011;46851;49.160;8.980;2022-11-02T15:38:40;15.88;;;4.70;;
60979;SDS011;46851;49.160;8.980;2022-11-02T15:44:09;30.83;;;5.15;;
60979;SDS011;46851;49.160;8.980;2022-11-02T15:55:01;15.50;;;2.80;;
60979;SDS011;46851;49.160;8.980;2022-11-02T16:02:26;13.75;;;3.67;;
60979;SDS011;46851;49.160;8.980;2022-11-02T16:04:54;12.52;;;3.03;;
60979;SDS011;46851;49.160;8.980;2022-11-02T16:07:20;10.02;;;2.33;;
60979;SDS011;46851;49.160;8.980;2022-11-02T16:09:47;9.77;;;2.85;;
60979;SDS011;46851;49.160;8.980;2022-11-02T16:14:43;11.27;;;2.65;;
60979;SDS011;46851;49.160;8.980;2022-11-02T16:17:46;13.25;;;2.75;;
60979;SDS011;46851;49.160;8.980;2022-11-02T16:22:34;13.02;;;2.92;;
60979;SDS011;46851;49.160;8.980;2022-11-02T16:25:06;10.13;;;2.55;;
60979;SDS011;46851;49.160;8.980;2022-11-02T16:27:35;13.93;;;3.28;;
60979;SDS011;46851;49.160;8.980;2022-11-02T16:30:01;14.95;;;4.13;;
60979;SDS011;46851;49.160;8.980;2022-11-02T16:32:27;22.48;;;5.30;;
60979;SDS011;46851;49.160;8.980;2022-11-02T16:37:25;20.63;;;6.05;;
60979;SDS011;46851;49.160;8.980;2022-11-02T16:39:51;16.23;;;5.80;;
60979;SDS011;46851;49.160;8.980;2022-11-02T16:47:43;14.57;;;5.93;;
60979;SDS011;46851;49.160;8.980;2022-11-02T16:50:20;17.80;;;5.35;;
60979;SDS011;46851;49.160;8.980;2022-11-02T16:52:53;18.20;;;5.53;;
60979;SDS011;46851;49.160;8.980;2022-11-02T16:55:28;18.42;;;5.72;;
60979;SDS011;46851;49.160;8.980;2022-11-02T16:57:54;20.02;;;6.63;;
60979;SDS011;46851;49.160;8.980;2022-11-02T17:00:20;18.42;;;7.85;;
60979;SDS011;46851;49.160;8.980;2022-11-02T17:02:46;13.57;;;5.78;;
60979;SDS011;46851;49.160;8.980;2022-11-02T17:05:25;17.75;;;6.38;;
60979;SDS011;46851;49.160;8.980;2022-11-02T17:07:56;21.23;;;5.32;;
60979;SDS011;46851;49.160;8.980;2022-11-02T17:10:23;14.40;;;3.67;;
60979;SDS011;46851;49.160;8.980;2022-11-02T17:12:50;13.30;;;4.10;;
60979;SDS011;46851;49.160;8.980;2022-11-02T17:15:17;19.30;;;4.93;;
60979;SDS011;46851;49.160;8.980;2022-11-02T17:17:44;11.98;;;5.57;;
60979;SDS011;46851;49.160;8.980;2022-11-02T17:20:14;16.75;;;6.03;;
60979;SDS011;46851;49.160;8.980;2022-11-02T17:22:51;18.50;;;6.05;;
60979;SDS011;46851;49.160;8.980;2022-11-02T17:25:20;17.73;;;4.80;;
60979;SDS011;46851;49.160;8.980;2022-11-02T17:27:46;15.63;;;4.07;;
60979;SDS011;46851;49.160;8.980;2022-11-02T17:35:26;17.52;;;5.88;;
60979;SDS011;46851;49.160;8.980;2022-11-02T17:37:52;19.05;;;7.03;;
60979;SDS011;46851;49.160;8.980;2022-11-02T17:40:18;20.98;;;6.00;;
60979;SDS011;46851;49.160;8.980;2022-11-02T17:42:45;14.52;;;5.72;;
60979;SDS011;46851;49.160;8.980;2022-11-02T17:47:51;26.52;;;6.05;;
60979;SDS011;46851;49.160;8.980;2022-11-02T17:50:17;21.80;;;5.13;;
60979;SDS011;46851;49.160;8.980;2022-11-02T17:52:43;18.42;;;3.85;;
60979;SDS011;46851;49.160;8.980;2022-11-02T17:55:13;13.27;;;4.32;;
60979;SDS011;46851;49.160;8.980;2022-11-02T17:57:39;13.02;;;3.78;;
60979;SDS011;46851;49.160;8.980;2022-11-02T18:00:06;15.93;;;4.32;;
60979;SDS011;46851;49.160;8.980;2022-11-02T18:02:33;23.17;;;3.95;;
60979;SDS011;46851;49.160;8.980;2022-11-02T18:04:59;14.15;;;3.30;;